Time;durP1;ratioP1;P1;durP2;ratioP2;P2;SDS_P1;SDS_P2;PMS_P1;PMS_P2;Temp;Humidity;BMP_temperature;BMP_pressure;BME280_temperature;BME280_humidity;BME280_pressure;Samples;Min_cycle;Max_cycle;Signal;HPM_P1;HPM_P2
2021/12/16 00:11:03;;;;;;;22.45;12.82;;;21.60;54.20;;;;;;5097865;28;20061;-69
2021/12/16 00:30:53;;;;;;;22.80;13.93;;;21.70;53.80;;;;;;5097517;28;20065;-68
2021/12/16 00:33:12;;;;;;;20.75;13.05;;;21.90;53.70;;;;;;5096472;28;20132;-68
2021/12/16 00:35:42;;;;;;;20.80;13.00;;;21.80;53.60;;;;;;5097332;28;20043;-69
2021/12/16 00:38:09;;;;;;;21.38;13.73;;;21.80;53.60;;;;;;5097428;28;20067;-68
2021/12/16 00:40:41;;;;;;;21.60;12.95;;;21.80;53.60;;;;;;5097441;28;20045;-68
2021/12/16 00:43:19;;;;;;;21.05;13.18;;;21.70;53.50;;;;;;5097515;28;20051;-68
2021/12/16 00:49:01;;;;;;;;;;;21.70;53.50;;;;;;5097621;28;20049;-68
2021/12/16 00:54:09;;;;;;;19.73;12.30;;;21.60;53.40;;;;;;5097094;28;20056;-68
2021/12/16 00:57:08;;;;;;;21.08;13.13;;;21.70;53.40;;;;;;5096311;28;20052;-69
2021/12/16 00:59:38;;;;;;;19.88;13.27;;;21.60;53.40;;;;;;5096127;28;20040;-70
2021/12/16 01:45:25;;;;;;;23.83;14.23;;;21.60;53.00;;;;;;5095827;28;20066;-68
2021/12/16 01:50:54;;;;;;;21.67;13.27;;;21.60;53.00;;;;;;5096696;28;20104;-68
2021/12/16 01:59:06;;;;;;;20.50;14.25;;;21.50;52.90;;;;;;5084321;28;20100;-69
2021/12/16 02:01:34;;;;;;;25.25;14.80;;;21.50;52.90;;;;;;5079832;28;20041;-68
2021/12/16 02:04:13;;;;;;;27.05;14.70;;;21.50;52.90;;;;;;5079609;28;20056;-68
2021/12/16 02:06:59;;;;;;;22.23;13.48;;;21.60;52.80;;;;;;5079600;28;20055;-69
2021/12/16 02:09:39;;;;;;;20.33;14.15;;;21.40;52.60;;;;;;5087799;28;20048;-69
2021/12/16 02:36:53;;;;;;;21.67;14.27;;;21.50;52.60;;;;;;5086410;28;20048;-68
2021/12/16 02:39:19;;;;;;;23.48;14.35;;;21.40;52.40;;;;;;5099537;28;20052;-68
2021/12/16 02:41:47;;;;;;;24.77;14.23;;;21.40;52.40;;;;;;5099180;28;20108;-68
2021/12/16 02:49:52;;;;;;;23.58;14.52;;;21.50;52.30;;;;;;5088291;28;20047;-68
2021/12/16 02:52:22;;;;;;;22.63;14.90;;;21.60;52.20;;;;;;5095323;28;20108;-68
2021/12/16 02:54:49;;;;;;;25.58;15.48;;;21.60;52.10;;;;;;5079477;28;20036;-68
2021/12/16 02:57:16;;;;;;;24.08;13.93;;;21.50;52.20;;;;;;5112168;28;20045;-69
2021/12/16 02:59:43;;;;;;;21.70;13.43;;;21.40;52.20;;;;;;5079259;28;20063;-68
2021/12/16 03:02:15;;;;;;;23.55;14.73;;;21.60;52.30;;;;;;5079333;28;20071;-68
2021/12/16 03:04:47;;;;;;;24.30;13.82;;;21.30;52.30;;;;;;5095264;28;20052;-68
2021/12/16 03:07:15;;;;;;;21.30;13.43;;;21.40;52.40;;;;;;5078975;28;20080;-68
2021/12/16 03:15:14;;;;;;;24.05;14.25;;;21.30;52.10;;;;;;5112000;28;20048;-68
2021/12/16 03:28:53;;;;;;;20.00;13.07;;;21.20;52.20;;;;;;5077518;28;20060;-69
2021/12/16 03:37:15;;;;;;;23.95;13.50;;;21.30;52.00;;;;;;5111449;28;20043;-68
2021/12/16 03:39:50;;;;;;;22.23;13.73;;;21.30;52.00;;;;;;5078681;28;20076;-68
2021/12/16 03:42:22;;;;;;;19.85;13.65;;;21.50;51.90;;;;;;5094428;28;20090;-68
2021/12/16 03:44:59;;;;;;;24.30;14.25;;;21.30;51.90;;;;;;5111505;28;20045;-68
2021/12/16 03:47:47;;;;;;;19.10;12.45;;;21.40;51.70;;;;;;5094260;28;20040;-69
2021/12/16 03:50:19;;;;;;;20.55;12.63;;;21.40;51.80;;;;;;5094509;28;20076;-69
2021/12/16 03:52:48;;;;;;;23.17;12.88;;;21.40;51.70;;;;;;5094427;28;20061;-68
2021/12/16 03:55:16;;;;;;;20.50;13.55;;;21.50;51.70;;;;;;5077443;28;20071;-68
2021/12/16 03:57:42;;;;;;;20.35;12.77;;;21.40;51.70;;;;;;5094273;28;20048;-68
2021/12/16 04:00:26;;;;;;;20.35;12.13;;;21.30;51.70;;;;;;5094251;28;20234;-69
2021/12/16 04:02:58;;;;;;;19.55;13.15;;;21.40;51.70;;;;;;5094143;28;20036;-68
2021/12/16 04:05:29;;;;;;;27.90;13.63;;;21.30;51.70;;;;;;5096963;28;20055;-68
2021/12/16 04:08:00;;;;;;;18.45;11.73;;;21.40;51.70;;;;;;5097179;28;20457;-69
2021/12/16 04:10:37;;;;;;;22.23;12.65;;;21.40;51.70;;;;;;5097340;28;20044;-69
2021/12/16 04:13:14;;;;;;;21.10;12.98;;;21.30;51.80;;;;;;5097934;28;20051;-68
2021/12/16 04:15:43;;;;;;;22.02;11.95;;;21.20;51.80;;;;;;5096999;28;20111;-68
2021/12/16 04:18:11;;;;;;;21.08;12.85;;;21.20;51.90;;;;;;5097166;28;20056;-69
2021/12/16 04:20:37;;;;;;;20.27;12.68;;;21.10;51.90;;;;;;5096099;28;20049;-68
2021/12/16 04:23:06;;;;;;;22.73;12.95;;;21.20;52.00;;;;;;5096995;28;20055;-69
2021/12/16 04:25:37;;;;;;;22.85;12.88;;;21.10;51.90;;;;;;5097135;28;20068;-68
2021/12/16 04:28:13;;;;;;;18.10;11.88;;;21.20;51.90;;;;;;5096939;28;20048;-69
2021/12/16 04:30:41;;;;;;;21.45;12.38;;;21.20;51.90;;;;;;5096798;28;20056;-68
2021/12/16 04:33:08;;;;;;;19.33;11.27;;;21.10;51.80;;;;;;5096877;28;20067;-69
2021/12/16 04:35:37;;;;;;;20.88;12.45;;;21.20;51.90;;;;;;5097481;28;20072;-68
2021/12/16 04:38:06;;;;;;;18.83;10.27;;;21.10;51.70;;;;;;5096484;28;20066;-69
2021/12/16 04:40:36;;;;;;;19.92;12.00;;;21.20;51.60;;;;;;5080260;28;20066;-68
2021/12/16 04:43:05;;;;;;;16.73;10.20;;;21.30;51.60;;;;;;5096772;28;20054;-68
2021/12/16 04:45:49;;;;;;;19.98;11.52;;;21.30;51.50;;;;;;5096904;28;20040;-68
2021/12/16 04:48:15;;;;;;;17.60;11.25;;;21.50;51.50;;;;;;5096589;28;20048;-68
2021/12/16 04:50:42;;;;;;;16.75;10.80;;;21.50;51.40;;;;;;5096543;28;20048;-69
2021/12/16 04:53:11;;;;;;;16.52;11.13;;;21.30;51.70;;;;;;5096521;28;20049;-68
2021/12/16 04:55:41;;;;;;;18.05;11.27;;;21.40;51.80;;;;;;5096565;28;20033;-68
2021/12/16 04:58:07;;;;;;;16.45;9.52;;;21.30;51.90;;;;;;5096283;28;20055;-69
2021/12/16 05:00:33;;;;;;;19.95;11.77;;;21.30;51.90;;;;;;5097128;28;20045;-69
2021/12/16 05:03:21;;;;;;;19.67;11.57;;;21.20;51.60;;;;;;5095773;28;20052;-68
2021/12/16 05:05:48;;;;;;;19.08;12.50;;;21.20;51.50;;;;;;5095708;28;20045;-68
2021/12/16 05:08:14;;;;;;;20.85;11.38;;;21.30;51.70;;;;;;5095616;28;20079;-68
2021/12/16 05:10:57;;;;;;;23.92;13.50;;;21.20;50.70;;;;;;5095730;28;20051;-68
2021/12/16 05:13:26;;;;;;;20.80;12.40;;;21.30;51.60;;;;;;5093161;28;20048;-68
2021/12/16 05:15:55;;;;;;;19.88;12.38;;;21.30;51.60;;;;;;5083338;28;20095;-69
2021/12/16 05:18:29;;;;;;;21.35;12.68;;;21.50;51.70;;;;;;5088448;28;20042;-67
2021/12/16 05:20:59;;;;;;;20.83;11.70;;;21.60;54.80;;;;;;5095596;28;20029;-70
2021/12/16 05:26:19;;;;;;;18.80;13.20;;;22.30;60.40;;;;;;5095385;28;20048;-67
2021/12/16 05:29:03;;;;;;;20.45;12.85;;;22.50;60.80;;;;;;5095377;28;20048;-69
2021/12/16 05:31:30;;;;;;;17.23;11.30;;;22.60;57.60;;;;;;5094900;28;20051;-70
2021/12/16 05:34:00;;;;;;;19.60;12.63;;;22.40;55.30;;;;;;5095605;28;20067;-68
2021/12/16 05:36:27;;;;;;;25.02;11.50;;;22.10;54.50;;;;;;5095578;28;20043;-69
2021/12/16 05:38:53;;;;;;;19.90;11.45;;;22.10;55.30;;;;;;5095273;28;20064;-68
2021/12/16 05:41:22;;;;;;;18.05;10.95;;;22.20;54.50;;;;;;5078622;28;20036;-68
2021/12/16 05:43:52;;;;;;;14.98;8.85;;;22.30;52.90;;;;;;5095426;28;20044;-68
2021/12/16 05:46:20;;;;;;;20.25;11.27;;;22.40;51.00;;;;;;5095414;28;20079;-68
2021/12/16 05:48:48;;;;;;;19.55;11.75;;;22.40;49.40;;;;;;5095168;28;20047;-68
2021/12/16 05:51:21;;;;;;;17.75;11.60;;;22.60;48.10;;;;;;5095345;28;20087;-68
2021/12/16 05:53:51;;;;;;;16.65;10.00;;;22.50;46.90;;;;;;5095248;28;20044;-67
2021/12/16 05:56:37;;;;;;;16.02;10.50;;;22.60;46.60;;;;;;5095212;28;20051;-70
2021/12/16 05:59:06;;;;;;;14.50;10.00;;;22.70;46.30;;;;;;5095192;28;20043;-68
2021/12/16 06:01:36;;;;;;;15.18;9.23;;;22.60;45.80;;;;;;5095078;28;20050;-68
2021/12/16 06:04:03;;;;;;;13.20;9.85;;;22.80;45.80;;;;;;5095566;28;20052;-69
2021/12/16 06:06:32;;;;;;;10.85;7.13;;;22.60;43.90;;;;;;5095095;28;20044;-68
2021/12/16 06:08:59;;;;;;;14.35;6.95;;;22.60;42.20;;;;;;5094920;28;20075;-69
2021/12/16 06:11:29;;;;;;;12.73;7.97;;;22.50;41.90;;;;;;5088456;28;20057;-70
2021/12/16 06:14:15;;;;;;;8.80;5.88;;;22.50;42.50;;;;;;5075387;28;20045;-68
2021/12/16 06:22:35;;;;;;;14.02;7.60;;;22.60;43.90;;;;;;5092840;28;20040;-71
2021/12/16 06:27:53;;;;;;;15.02;10.07;;;22.60;45.40;;;;;;5092934;28;20079;-69
2021/12/16 06:30:27;;;;;;;11.70;8.20;;;22.40;43.60;;;;;;5094680;28;20056;-68
2021/12/16 06:32:54;;;;;;;13.93;8.30;;;22.40;41.70;;;;;;5092646;28;20040;-69
2021/12/16 06:35:23;;;;;;;10.35;8.40;;;22.40;42.20;;;;;;5094673;28;20036;-69
2021/12/16 06:37:50;;;;;;;14.02;9.40;;;22.30;43.70;;;;;;5093760;28;20043;-70
2021/12/16 06:40:23;;;;;;;16.30;9.30;;;22.40;50.30;;;;;;5093647;28;20060;-69
2021/12/16 06:43:25;;;;;;;15.00;8.95;;;22.60;54.80;;;;;;5073024;28;20078;-70
2021/12/16 06:45:54;;;;;;;14.88;9.23;;;22.70;55.90;;;;;;5093347;28;20067;-70
2021/12/16 06:48:26;;;;;;;14.60;9.45;;;22.50;61.50;;;;;;5098013;28;20032;-72
2021/12/16 06:51:00;;;;;;;13.43;9.83;;;22.50;57.90;;;;;;5089218;28;20049;-69
2021/12/16 06:53:44;;;;;;;17.55;9.82;;;22.40;56.70;;;;;;5088392;28;20789;-69
2021/12/16 06:56:17;;;;;;;17.35;10.00;;;22.20;56.70;;;;;;5098756;28;20067;-71
2021/12/16 06:58:48;;;;;;;15.73;9.52;;;22.10;57.10;;;;;;5098604;28;20037;-71
2021/12/16 07:01:31;;;;;;;14.07;8.93;;;22.10;57.90;;;;;;5098076;28;20068;-72
2021/12/16 07:03:58;;;;;;;17.70;9.00;;;22.00;58.60;;;;;;5098332;28;20086;-71
2021/12/16 07:06:28;;;;;;;12.38;8.85;;;21.90;59.10;;;;;;5098510;28;20059;-70
2021/12/16 07:08:59;;;;;;;14.00;9.50;;;21.90;59.20;;;;;;5098069;28;20077;-71
2021/12/16 07:11:26;;;;;;;15.98;8.07;;;21.90;59.70;;;;;;5098473;28;20028;-72
2021/12/16 07:14:01;;;;;;;12.30;8.25;;;21.90;60.00;;;;;;5098266;28;20032;-72
2021/12/16 07:16:29;;;;;;;15.70;9.20;;;22.00;59.50;;;;;;5098426;28;20037;-72
2021/12/16 07:18:57;;;;;;;12.90;8.82;;;22.00;59.80;;;;;;5097661;28;20040;-72
2021/12/16 07:21:23;;;;;;;12.85;7.60;;;22.00;59.90;;;;;;5098251;28;20051;-71
2021/12/16 07:23:51;;;;;;;11.45;7.65;;;22.10;60.30;;;;;;5098245;28;20108;-71
2021/12/16 07:26:17;;;;;;;16.13;7.97;;;22.00;60.00;;;;;;5098009;28;20051;-73
2021/12/16 07:28:43;;;;;;;13.40;7.93;;;22.20;60.10;;;;;;5098086;28;20068;-72
2021/12/16 07:31:09;;;;;;;11.88;7.85;;;22.20;60.20;;;;;;5097688;28;20045;-69
2021/12/16 07:33:36;;;;;;;13.38;8.07;;;22.20;60.00;;;;;;5096994;28;20052;-70
2021/12/16 07:36:03;;;;;;;12.73;7.75;;;22.20;60.10;;;;;;5097377;28;20044;-70
2021/12/16 07:38:30;;;;;;;11.18;7.18;;;22.30;60.50;;;;;;5097184;28;20037;-69
2021/12/16 07:40:57;;;;;;;12.25;7.70;;;22.30;60.40;;;;;;5096913;28;20040;-69
2021/12/16 07:43:40;;;;;;;11.43;7.65;;;22.30;60.00;;;;;;5096831;28;20048;-69
2021/12/16 07:46:08;;;;;;;15.50;8.57;;;22.30;60.20;;;;;;5093727;28;20045;-73
2021/12/16 07:48:34;;;;;;;12.98;7.97;;;22.30;60.80;;;;;;5096976;28;20040;-71
2021/12/16 07:51:02;;;;;;;12.77;7.88;;;22.30;60.70;;;;;;5096864;28;20127;-70
2021/12/16 07:53:29;;;;;;;21.60;7.72;;;22.30;60.70;;;;;;5096526;28;20041;-71
2021/12/16 07:55:55;;;;;;;9.32;6.47;;;22.30;60.80;;;;;;5096344;28;20047;-69
2021/12/16 07:58:23;;;;;;;10.88;7.63;;;22.20;60.80;;;;;;5096495;28;20051;-71
2021/12/16 08:00:50;;;;;;;16.73;8.88;;;22.20;60.80;;;;;;5096232;28;20044;-69
2021/12/16 08:03:17;;;;;;;11.23;6.88;;;22.20;60.70;;;;;;5096994;28;20036;-71
2021/12/16 08:05:52;;;;;;;12.35;6.10;;;22.30;60.70;;;;;;5096414;28;20049;-70
2021/12/16 08:08:19;;;;;;;11.73;7.20;;;22.50;60.30;;;;;;5096691;28;20041;-69
2021/12/16 08:10:45;;;;;;;11.15;7.22;;;22.40;60.00;;;;;;5097217;28;20045;-69
2021/12/16 08:13:13;;;;;;;11.95;7.63;;;22.40;59.90;;;;;;5097098;28;20040;-69
2021/12/16 08:15:41;;;;;;;10.35;6.70;;;22.30;60.30;;;;;;5097194;28;20032;-68
2021/12/16 08:18:07;;;;;;;12.63;7.60;;;22.50;60.30;;;;;;5097178;28;20041;-67
2021/12/16 08:20:33;;;;;;;9.82;6.65;;;22.40;59.90;;;;;;5097017;28;20051;-72
2021/12/16 08:23:00;;;;;;;6.70;5.05;;;22.30;59.10;;;;;;5096641;28;20099;-72
2021/12/16 08:25:30;;;;;;;7.38;4.78;;;22.30;59.60;;;;;;5095962;28;20043;-70
2021/12/16 08:27:57;;;;;;;9.35;5.28;;;22.40;57.60;;;;;;5095850;28;20047;-72
2021/12/16 08:30:26;;;;;;;8.90;5.82;;;22.50;54.30;;;;;;5096699;28;20060;-72
2021/12/16 08:32:52;;;;;;;7.55;4.82;;;22.50;51.90;;;;;;5095548;28;20044;-71
2021/12/16 08:35:19;;;;;;;11.98;6.28;;;22.50;50.20;;;;;;5096594;28;20040;-74
2021/12/16 08:37:46;;;;;;;10.60;6.85;;;22.70;48.70;;;;;;5096583;28;20037;-72
2021/12/16 08:40:16;;;;;;;9.13;6.80;;;22.70;48.00;;;;;;5096789;28;20048;-70
2021/12/16 08:42:43;;;;;;;7.20;5.43;;;22.60;46.50;;;;;;5096402;28;20044;-69
2021/12/16 08:45:14;;;;;;;7.38;5.22;;;22.60;41.40;;;;;;5096451;28;20068;-68
2021/12/16 08:47:40;;;;;;;6.95;4.65;;;22.60;40.60;;;;;;5096397;28;20048;-68
2021/12/16 08:50:09;;;;;;;10.88;5.50;;;22.60;41.00;;;;;;5096385;28;20054;-69
2021/12/16 08:52:35;;;;;;;7.50;4.40;;;22.80;43.00;;;;;;5096202;28;20174;-70
2021/12/16 08:55:04;;;;;;;8.05;5.03;;;22.90;46.30;;;;;;5096467;28;20044;-68
2021/12/16 08:57:30;;;;;;;14.85;7.85;;;22.90;46.80;;;;;;5095960;28;20043;-68
2021/12/16 08:59:56;;;;;;;36.70;13.48;;;23.10;42.00;;;;;;5095714;28;20042;-69
2021/12/16 09:02:22;;;;;;;114.72;35.63;;;23.10;39.70;;;;;;5095036;28;20045;-69
2021/12/16 09:04:50;;;;;;;7.20;4.93;;;23.10;42.90;;;;;;5095543;28;20028;-69
2021/12/16 09:07:17;;;;;;;9.40;4.90;;;23.20;41.10;;;;;;5094363;28;20064;-69
2021/12/16 09:09:45;;;;;;;9.25;5.05;;;23.20;37.50;;;;;;5094918;28;20048;-71
2021/12/16 09:14:59;;;;;;;9.63;5.28;;;23.20;35.60;;;;;;5095016;28;20099;-69
2021/12/16 09:17:25;;;;;;;8.25;5.00;;;23.30;37.60;;;;;;5094789;28;20036;-69
2021/12/16 09:19:54;;;;;;;9.85;4.25;;;23.20;37.20;;;;;;5095025;28;20043;-68
2021/12/16 09:22:23;;;;;;;13.38;5.47;;;23.20;35.50;;;;;;5093872;28;20024;-68
2021/12/16 09:24:50;;;;;;;10.70;3.88;;;23.40;36.60;;;;;;5094333;28;20040;-67
2021/12/16 09:27:17;;;;;;;8.25;5.13;;;23.40;36.20;;;;;;5095090;28;20048;-69
2021/12/16 09:29:45;;;;;;;9.98;5.07;;;23.30;36.30;;;;;;5094949;28;20058;-69
2021/12/16 09:32:11;;;;;;;7.88;4.80;;;23.30;35.30;;;;;;5094753;28;20043;-70
2021/12/16 09:34:39;;;;;;;5.00;3.65;;;23.30;35.80;;;;;;5095372;28;20032;-70
2021/12/16 09:37:06;;;;;;;12.18;4.65;;;23.40;37.90;;;;;;5095989;28;20032;-69
2021/12/16 09:39:34;;;;;;;2.13;1.95;;;23.30;40.70;;;;;;5095492;28;20097;-66
2021/12/16 09:42:01;;;;;;;5.22;2.97;;;23.40;45.20;;;;;;5095512;28;20044;-69
2021/12/16 09:44:29;;;;;;;9.60;3.80;;;23.30;45.80;;;;;;5095586;28;20058;-71
2021/12/16 09:46:59;;;;;;;1.52;1.25;;;23.40;45.00;;;;;;5095463;28;20054;-67
2021/12/16 09:49:26;;;;;;;2.65;1.77;;;23.40;43.60;;;;;;5095891;28;20040;-67
2021/12/16 09:51:54;;;;;;;11.23;4.38;;;23.50;44.30;;;;;;5095724;28;20104;-65
2021/12/16 09:54:25;;;;;;;6.15;3.63;;;23.40;44.00;;;;;;5095503;28;20052;-66
2021/12/16 09:56:53;;;;;;;5.95;3.85;;;23.30;43.80;;;;;;5095800;28;20040;-69
2021/12/16 09:59:22;;;;;;;5.60;3.92;;;23.40;43.80;;;;;;5095167;28;20104;-69
2021/12/16 10:01:51;;;;;;;10.38;4.43;;;23.40;38.90;;;;;;5095647;28;20040;-69
2021/12/16 10:04:21;;;;;;;8.57;4.20;;;23.30;36.70;;;;;;5094887;28;20044;-69
2021/12/16 10:06:53;;;;;;;8.38;4.45;;;23.50;37.50;;;;;;5095641;28;20044;-69
2021/12/16 10:09:20;;;;;;;18.27;5.03;;;23.40;38.30;;;;;;5095658;28;20071;-69
2021/12/16 10:11:48;;;;;;;5.97;3.72;;;23.50;40.90;;;;;;5095411;28;20344;-69
2021/12/16 10:14:30;;;;;;;8.70;5.22;;;23.70;41.00;;;;;;5095271;28;20047;-69
2021/12/16 10:19:43;;;;;;;7.32;5.70;;;23.70;41.10;;;;;;5098286;28;20045;-71
2021/12/16 10:22:15;;;;;;;11.75;5.22;;;23.80;46.30;;;;;;5099197;28;20104;-71
2021/12/16 10:24:42;;;;;;;7.80;5.37;;;23.60;46.30;;;;;;5099244;28;20060;-70
2021/12/16 10:27:16;;;;;;;6.85;4.70;;;23.60;47.80;;;;;;5099090;28;20086;-70
2021/12/16 10:30:04;;;;;;;6.88;4.40;;;23.70;49.40;;;;;;5099159;28;20052;-70
2021/12/16 10:32:46;;;;;;;7.13;4.80;;;23.50;48.10;;;;;;5098231;28;20052;-70
2021/12/16 10:35:27;;;;;;;5.22;3.95;;;23.50;48.70;;;;;;5097941;28;20606;-70
2021/12/16 10:37:59;;;;;;;6.40;3.10;;;23.50;50.20;;;;;;5099198;28;20040;-70
2021/12/16 10:40:43;;;;;;;7.57;3.65;;;23.80;45.90;;;;;;5099073;28;20048;-69
2021/12/16 10:43:41;;;;;;;6.50;3.53;;;24.00;52.10;;;;;;5097953;28;20037;-70
2021/12/16 10:46:27;;;;;;;4.78;3.20;;;24.30;55.40;;;;;;5099081;28;20041;-70
2021/12/16 10:49:15;;;;;;;7.22;4.43;;;24.60;45.50;;;;;;5098722;28;20036;-69
2021/12/16 10:51:47;;;;;;;7.15;4.80;;;24.40;44.70;;;;;;5098582;28;20036;-70
2021/12/16 10:54:17;;;;;;;8.87;5.37;;;24.50;46.60;;;;;;5098460;28;20054;-71
2021/12/16 10:56:49;;;;;;;10.40;4.68;;;24.40;41.30;;;;;;5098624;28;20063;-70
2021/12/16 10:59:28;;;;;;;6.30;4.57;;;24.50;39.70;;;;;;5098666;28;20056;-71
2021/12/16 11:02:06;;;;;;;6.28;4.70;;;24.40;38.80;;;;;;5098824;28;20037;-70
2021/12/16 11:04:42;;;;;;;7.85;4.65;;;24.40;39.60;;;;;;5098190;28;20044;-71
2021/12/16 11:07:14;;;;;;;10.77;5.78;;;24.30;37.60;;;;;;5098688;28;20100;-73
2021/12/16 11:10:00;;;;;;;6.93;5.20;;;24.30;39.20;;;;;;5098182;28;20036;-72
2021/12/16 11:12:46;;;;;;;5.03;4.28;;;24.50;37.80;;;;;;5091181;28;20055;-72
2021/12/16 11:15:13;;;;;;;10.20;5.40;;;24.40;44.80;;;;;;5098154;28;20041;-70
2021/12/16 11:17:51;;;;;;;9.27;5.85;;;24.70;51.00;;;;;;5098463;28;20040;-70
2021/12/16 11:20:22;;;;;;;8.38;5.78;;;24.70;49.10;;;;;;5097451;28;20044;-71
2021/12/16 11:22:53;;;;;;;10.40;6.65;;;24.50;48.00;;;;;;5098209;28;20037;-70
2021/12/16 11:25:29;;;;;;;8.27;5.60;;;24.50;48.40;;;;;;5098139;28;20040;-71
2021/12/16 11:28:13;;;;;;;7.15;5.53;;;24.40;48.90;;;;;;5098376;28;20041;-70
2021/12/16 11:30:51;;;;;;;9.73;6.10;;;24.30;49.50;;;;;;5097327;28;20136;-70
2021/12/16 11:33:29;;;;;;;9.50;5.85;;;24.30;50.10;;;;;;5097913;28;20075;-70
2021/12/16 11:36:10;;;;;;;8.45;5.80;;;24.20;50.50;;;;;;5097069;28;20064;-69
2021/12/16 11:38:52;;;;;;;12.23;6.63;;;24.00;50.90;;;;;;5096994;28;20045;-71
2021/12/16 11:41:25;;;;;;;10.35;6.90;;;24.00;51.50;;;;;;5098106;28;20052;-70
2021/12/16 11:44:04;;;;;;;;;;;23.90;51.60;;;;;;5097482;28;20052;-69
2021/12/16 11:46:35;;;;;;;7.60;4.93;;;23.80;51.90;;;;;;5097647;28;19916;-70
2021/12/16 11:49:22;;;;;;;8.90;5.97;;;23.70;52.40;;;;;;5097840;28;20044;-69
2021/12/16 11:51:58;;;;;;;9.65;5.60;;;23.70;53.00;;;;;;5096625;28;20044;-70
2021/12/16 11:54:34;;;;;;;10.10;6.15;;;23.60;53.20;;;;;;5097101;28;20705;-69
2021/12/16 11:57:13;;;;;;;8.63;5.57;;;23.50;53.20;;;;;;5096960;28;20045;-70
2021/12/16 11:59:50;;;;;;;10.55;6.63;;;23.40;53.50;;;;;;5097552;28;20048;-71
2021/12/16 12:02:26;;;;;;;10.55;6.30;;;23.40;53.90;;;;;;5097448;28;20045;-70
2021/12/16 12:04:54;;;;;;;8.38;5.47;;;23.30;54.70;;;;;;5097072;28;20037;-70
2021/12/16 12:07:20;;;;;;;9.48;6.53;;;23.20;55.00;;;;;;5097334;28;20047;-70
2021/12/16 12:09:50;;;;;;;10.02;5.50;;;23.10;55.20;;;;;;5097507;28;20032;-69
2021/12/16 12:12:39;;;;;;;11.52;6.13;;;23.10;55.30;;;;;;5097060;28;20069;-70
2021/12/16 12:15:08;;;;;;;12.00;6.88;;;23.00;55.30;;;;;;5096918;28;20044;-69
2021/12/16 12:17:47;;;;;;;12.48;6.63;;;23.10;55.20;;;;;;5097264;28;20037;-70
2021/12/16 12:20:13;;;;;;;12.13;7.05;;;23.10;55.10;;;;;;5097128;28;20071;-71
2021/12/16 12:22:39;;;;;;;14.13;6.70;;;23.20;54.70;;;;;;5096922;28;20062;-69
2021/12/16 12:25:05;;;;;;;11.80;6.57;;;23.30;54.50;;;;;;5096576;28;20055;-70
2021/12/16 12:27:31;;;;;;;10.73;6.43;;;23.10;56.60;;;;;;5096747;28;20063;-68
2021/12/16 12:30:08;;;;;;;10.63;6.95;;;23.20;56.70;;;;;;5095504;28;20836;-69
2021/12/16 12:32:40;;;;;;;11.82;7.13;;;23.10;56.10;;;;;;5095452;28;20083;-69
2021/12/16 12:35:23;;;;;;;15.75;7.22;;;23.10;55.90;;;;;;5095388;28;20064;-68
2021/12/16 12:37:53;;;;;;;12.32;7.55;;;23.20;55.80;;;;;;5094797;28;20062;-68
2021/12/16 12:40:36;;;;;;;11.75;7.65;;;23.20;55.90;;;;;;5095561;28;20063;-69
2021/12/16 12:43:04;;;;;;;11.40;7.85;;;23.30;55.90;;;;;;5076606;28;20551;-69
2021/12/16 12:45:35;;;;;;;14.20;8.18;;;23.30;55.60;;;;;;5076342;28;20037;-69
2021/12/16 12:48:09;;;;;;;13.73;7.10;;;23.30;55.70;;;;;;5076305;28;20101;-70
2021/12/16 12:50:39;;;;;;;13.25;7.72;;;23.30;55.70;;;;;;5076665;28;20059;-69
2021/12/16 12:53:17;;;;;;;15.13;7.55;;;23.30;55.70;;;;;;5076114;28;20074;-69
2021/12/16 12:55:46;;;;;;;10.95;7.65;;;23.40;55.80;;;;;;5076261;28;20072;-70
2021/12/16 12:58:16;;;;;;;12.30;7.05;;;23.20;56.10;;;;;;5076416;28;20036;-69
2021/12/16 13:00:56;;;;;;;12.40;6.97;;;23.10;56.10;;;;;;5076491;28;20040;-69
2021/12/16 13:03:31;;;;;;;11.15;7.05;;;23.20;56.20;;;;;;5076185;28;20033;-69
2021/12/16 13:06:05;;;;;;;12.18;7.28;;;23.10;56.40;;;;;;5076113;28;20060;-69
2021/12/16 13:08:35;;;;;;;13.60;7.63;;;23.10;56.50;;;;;;5075752;28;20069;-70
2021/12/16 13:11:11;;;;;;;13.73;8.35;;;23.10;56.50;;;;;;5076186;28;20104;-70
2021/12/16 13:14:19;;;;;;;9.13;6.65;;;23.00;56.50;;;;;;5076122;28;20052;-70
2021/12/16 13:28:20;;;;;;;15.60;7.93;;;23.00;56.80;;;;;;5094936;28;20059;-69
2021/12/16 13:31:02;;;;;;;12.82;8.57;;;23.10;56.70;;;;;;5094938;28;20047;-69
2021/12/16 13:33:46;;;;;;;13.10;8.40;;;23.00;56.50;;;;;;5095540;28;20075;-69
2021/12/16 13:36:25;;;;;;;16.63;8.10;;;23.10;56.70;;;;;;5094846;28;20033;-68
2021/12/16 13:38:52;;;;;;;14.13;7.85;;;23.20;57.30;;;;;;5095439;28;20040;-69
2021/12/16 13:41:24;;;;;;;13.15;8.02;;;23.10;58.50;;;;;;5095648;28;20060;-69
2021/12/16 13:44:14;;;;;;;13.07;8.83;;;23.10;58.90;;;;;;5095556;28;20061;-69
2021/12/16 14:01:57;;;;;;;14.00;8.50;;;23.00;58.90;;;;;;5099741;28;20048;-69
2021/12/16 14:07:28;;;;;;;16.77;10.23;;;23.20;59.00;;;;;;5099162;28;20063;-69
2021/12/16 14:10:12;;;;;;;19.70;10.80;;;23.00;58.80;;;;;;5098721;28;20050;-69
2021/12/16 14:23:09;;;;;;;23.73;12.05;;;23.50;61.00;;;;;;5099030;28;20044;-69
2021/12/16 14:25:52;;;;;;;21.25;11.40;;;23.50;59.00;;;;;;5098913;28;20048;-68
2021/12/16 14:45:18;;;;;;;17.15;9.40;;;23.80;54.70;;;;;;5098707;28;20063;-68
2021/12/16 14:48:38;;;;;;;15.48;10.65;;;24.40;53.50;;;;;;5098707;28;20040;-69
2021/12/16 14:50:43;;;;;;;13.95;10.10;;;24.50;56.20;;;;;;5098118;28;20059;-69
2021/12/16 14:53:15;;;;;;;17.00;10.48;;;24.50;56.70;;;;;;5098467;28;20049;-68
2021/12/16 14:55:43;;;;;;;18.20;10.82;;;24.30;56.40;;;;;;5098705;28;20059;-68
2021/12/16 14:58:10;;;;;;;20.88;11.10;;;24.30;56.80;;;;;;5097701;28;20062;-71
2021/12/16 15:00:43;;;;;;;15.45;10.40;;;24.30;57.00;;;;;;5098519;28;20084;-67
2021/12/16 15:03:23;;;;;;;13.32;9.77;;;24.20;57.30;;;;;;5098690;28;20036;-69
2021/12/16 15:06:02;;;;;;;16.33;8.57;;;24.20;57.60;;;;;;5097480;28;20127;-76
2021/12/16 15:09:28;;;;;;;15.15;9.48;;;24.00;58.00;;;;;;5097634;28;20032;-71
2021/12/16 15:11:42;;;;;;;18.10;11.15;;;24.10;57.70;;;;;;5097716;28;20024;-69
2021/12/16 15:44:22;;;;;;;18.15;10.63;;;24.30;47.60;;;;;;5097564;28;20040;-70
2021/12/16 15:46:51;;;;;;;18.38;11.27;;;24.30;47.00;;;;;;5097813;28;20047;-70
2021/12/16 15:49:18;;;;;;;14.63;8.25;;;24.40;46.30;;;;;;5097056;28;20039;-70
2021/12/16 15:51:50;;;;;;;15.05;10.77;;;24.30;45.30;;;;;;5097323;28;20070;-70
2021/12/16 15:54:18;;;;;;;19.13;10.00;;;24.30;43.70;;;;;;5097232;28;20036;-69
2021/12/16 15:56:47;;;;;;;13.68;9.75;;;24.10;42.50;;;;;;5097441;28;20044;-69
2021/12/16 15:59:17;;;;;;;18.95;10.80;;;24.10;44.80;;;;;;5097384;28;20052;-69
2021/12/16 16:01:46;;;;;;;16.17;10.23;;;24.10;43.10;;;;;;5097688;28;20240;-68
2021/12/16 16:04:23;;;;;;;13.77;7.63;;;23.90;46.50;;;;;;5097226;28;20037;-70
2021/12/16 16:06:57;;;;;;;16.05;11.02;;;24.00;46.80;;;;;;5097117;28;20060;-70
2021/12/16 16:09:27;;;;;;;16.00;11.00;;;24.00;45.30;;;;;;5097387;28;20067;-69
2021/12/16 16:11:55;;;;;;;17.60;11.98;;;23.80;45.10;;;;;;5097001;28;20048;-67
2021/12/16 16:14:23;;;;;;;16.90;11.07;;;23.80;47.70;;;;;;5097094;28;20048;-69
2021/12/16 16:16:54;;;;;;;21.27;11.52;;;23.70;48.00;;;;;;5096367;28;20036;-69
2021/12/16 16:19:25;;;;;;;16.08;10.15;;;23.60;49.40;;;;;;5096459;28;20041;-70
2021/12/16 16:21:54;;;;;;;19.25;10.77;;;23.70;50.30;;;;;;5096389;28;20088;-69
2021/12/16 16:24:29;;;;;;;17.15;10.90;;;23.80;50.60;;;;;;5096643;28;20045;-70
2021/12/16 16:27:00;;;;;;;16.48;9.80;;;23.80;51.40;;;;;;5096924;28;20096;-70
2021/12/16 16:29:29;;;;;;;11.88;8.05;;;24.00;51.90;;;;;;5096067;28;20477;-69
2021/12/16 16:31:56;;;;;;;110.45;31.17;;;24.40;47.70;;;;;;5095816;28;20044;-69
2021/12/16 16:34:29;;;;;;;15.77;10.52;;;24.60;49.70;;;;;;5096560;28;20052;-69
2021/12/16 16:37:02;;;;;;;23.20;13.98;;;24.60;40.90;;;;;;5096784;28;20066;-69
2021/12/16 16:39:29;;;;;;;;;;;24.60;39.00;;;;;;5097205;28;20036;-70
2021/12/16 16:42:02;;;;;;;15.80;9.50;;;24.60;48.40;;;;;;5095722;28;19909;-68
2021/12/16 16:44:31;;;;;;;17.42;13.30;;;24.60;41.70;;;;;;5080501;28;20039;-70
2021/12/16 16:47:36;;;;;;;9.32;5.93;;;24.50;42.20;;;;;;5076312;28;20033;-68
2021/12/16 16:50:09;;;;;;;21.00;11.65;;;24.50;40.90;;;;;;5075668;28;20048;-70
2021/12/16 16:52:46;;;;;;;17.80;11.48;;;24.50;46.70;;;;;;5076391;28;20052;-69
2021/12/16 16:55:18;;;;;;;18.48;12.57;;;24.60;50.50;;;;;;5076063;28;20075;-67
2021/12/16 16:57:46;;;;;;;16.75;11.10;;;24.60;51.40;;;;;;5076442;28;20061;-66
2021/12/16 17:00:23;;;;;;;20.75;11.48;;;24.50;53.80;;;;;;5075380;28;20082;-67
2021/12/16 17:02:52;;;;;;;17.13;9.63;;;24.70;54.60;;;;;;5076266;28;20057;-68